Terminal Aerodrome Forecast
Issued by NWS New Orleans/Baton Rouge, LA

Home | Current Version | Previous Version | Text Only | Print | Product List | Glossary On
Versions: 1 2 3 4 5 6 7 8 9 10 11 12 13 14 15
000
FTUS44 KLIX 191700 RRA
TAFBTR
TAF
KBTR 191740Z 1918/2018 06008KT P6SM -RA OVC004
     FM200000 05008KT 4SM SHRA OVC006
     FM200600 04006KT P6SM OVC006
     FM201500 02007KT P6SM BKN012=

USA.gov is the U.S. government's official web portal to all federal, state and local government web resources and services.